createdAt,value
2023-05-02T00:02:06.380Z,15.31
2023-05-02T00:04:38.328Z,15.49
2023-05-02T00:07:11.439Z,15.52
2023-05-02T00:09:43.073Z,15.47
2023-05-02T00:12:14.673Z,15.54
2023-05-02T00:14:46.208Z,15.11
2023-05-02T00:17:21.463Z,15.38
2023-05-02T00:19:55.309Z,15.42
2023-05-02T00:22:26.904Z,15.77
2023-05-02T00:24:59.091Z,15.89
2023-05-02T00:27:34.503Z,16.06
2023-05-02T00:30:07.125Z,15.02
2023-05-02T00:32:41.706Z,15.45
2023-05-02T00:35:13.363Z,15.82
2023-05-02T00:37:44.889Z,14.61
2023-05-02T00:40:16.565Z,15.78
2023-05-02T00:42:48.184Z,15.82
2023-05-02T00:45:19.973Z,16.20
2023-05-02T00:47:55.426Z,16.35
2023-05-02T00:50:28.942Z,16.26
2023-05-02T00:53:01.052Z,16.27
2023-05-02T00:55:34.368Z,16.00
2023-05-02T00:58:11.896Z,16.25
2023-05-02T01:01:17.645Z,16.27
2023-05-02T01:04:20.309Z,16.22
2023-05-02T01:07:54.492Z,16.18
2023-05-02T01:10:49.618Z,15.34
2023-05-02T01:13:26.257Z,16.15
2023-05-02T01:15:59.750Z,16.27
2023-05-02T01:18:37.949Z,16.31
2023-05-02T01:21:11.746Z,16.37
2023-05-02T01:24:19.764Z,16.32
2023-05-02T01:27:11.504Z,16.30
2023-05-02T01:29:44.469Z,16.17
2023-05-02T01:32:17.110Z,16.20
2023-05-02T01:34:51.255Z,16.16
2023-05-02T01:37:23.923Z,16.09
2023-05-02T01:39:57.334Z,16.06
2023-05-02T01:42:30.276Z,15.96
2023-05-02T01:45:04.455Z,16.01
2023-05-02T01:47:37.839Z,15.93
2023-05-02T01:50:13.957Z,15.77
2023-05-02T01:52:49.700Z,15.83
2023-05-02T01:55:22.393Z,15.96
2023-05-02T01:57:56.277Z,16.01
2023-05-02T02:00:29.411Z,16.11
2023-05-02T02:03:03.830Z,16.27
2023-05-02T02:05:37.794Z,16.25
2023-05-02T02:08:09.524Z,16.26
2023-05-02T02:10:45.021Z,15.79
2023-05-02T02:13:39.145Z,15.58
2023-05-02T02:16:23.979Z,15.36
2023-05-02T02:18:57.659Z,15.52
2023-05-02T02:21:32.279Z,15.55
2023-05-02T02:24:06.577Z,15.74
2023-05-02T02:26:41.146Z,15.95
2023-05-02T02:29:12.858Z,16.15
2023-05-02T02:31:47.567Z,16.24
2023-05-02T02:34:20.576Z,16.27
2023-05-02T02:37:12.511Z,16.30
2023-05-02T02:40:33.771Z,16.31
2023-05-02T02:43:14.441Z,16.32
2023-05-02T02:46:24.674Z,16.04
2023-05-02T02:49:28.703Z,16.07
2023-05-02T02:52:29.880Z,16.33
2023-05-02T02:55:24.467Z,16.14
2023-05-02T02:58:04.366Z,16.12
2023-05-02T03:00:39.872Z,16.02
2023-05-02T03:03:16.628Z,15.71
2023-05-02T03:05:49.547Z,15.67
2023-05-02T03:08:21.154Z,15.63
2023-05-02T03:10:52.711Z,15.96
2023-05-02T03:13:24.298Z,16.13
2023-05-02T03:15:57.515Z,16.16
2023-05-02T03:18:29.168Z,16.28
2023-05-02T03:21:01.969Z,16.22
2023-05-02T03:23:33.719Z,16.37
2023-05-02T03:26:06.186Z,16.41
2023-05-02T03:28:37.744Z,16.17
2023-05-02T03:31:11.476Z,16.25
2023-05-02T03:33:43.191Z,16.41
2023-05-02T03:36:15.635Z,16.49
2023-05-02T03:38:47.179Z,16.55
2023-05-02T03:41:20.135Z,16.59
2023-05-02T03:43:51.896Z,16.51
2023-05-02T03:46:23.546Z,16.39
2023-05-02T03:48:55.177Z,16.50
2023-05-02T03:51:26.932Z,16.35
2023-05-02T03:53:58.526Z,16.35
2023-05-02T03:56:32.910Z,16.39
2023-05-02T03:59:04.730Z,16.44
2023-05-02T04:01:36.434Z,16.58
2023-05-02T04:04:08.683Z,16.36
2023-05-02T04:06:40.403Z,16.36
2023-05-02T04:09:12.063Z,16.46
2023-05-02T04:11:43.636Z,16.60
2023-05-02T04:14:15.304Z,16.54
2023-05-02T04:16:51.308Z,16.44
2023-05-02T04:19:22.871Z,16.48
2023-05-02T04:21:54.440Z,16.43
2023-05-02T04:24:26.150Z,16.31
2023-05-02T04:26:57.731Z,16.44
2023-05-02T04:29:29.295Z,16.56
2023-05-02T04:32:00.874Z,16.63
2023-05-02T04:34:32.549Z,16.57
2023-05-02T04:37:04.106Z,16.56
2023-05-02T04:39:35.756Z,16.57
2023-05-02T04:42:10.350Z,16.63
2023-05-02T04:44:41.926Z,16.57
2023-05-02T04:47:13.548Z,16.66
2023-05-02T04:49:45.097Z,16.22
2023-05-02T04:52:16.751Z,15.86
2023-05-02T04:54:48.343Z,16.13
2023-05-02T04:57:21.315Z,16.27
2023-05-02T04:59:54.560Z,16.30
2023-05-02T05:02:26.758Z,16.43
2023-05-02T05:04:58.515Z,16.59
2023-05-02T05:07:30.205Z,16.47
2023-05-02T05:10:02.079Z,16.74
2023-05-02T05:12:33.876Z,16.97
2023-05-02T05:15:06.996Z,16.88
2023-05-02T05:17:39.180Z,16.96
2023-05-02T05:20:11.119Z,17.29
2023-05-02T05:22:43.136Z,17.06
2023-05-02T05:25:15.223Z,17.34
2023-05-02T05:27:46.878Z,17.54
2023-05-02T05:30:18.511Z,17.38
2023-05-02T05:32:50.539Z,17.62
2023-05-02T05:35:22.154Z,17.57
2023-05-02T05:37:53.850Z,17.49
2023-05-02T05:40:25.487Z,17.81
2023-05-02T05:42:57.099Z,17.21
2023-05-02T05:45:28.667Z,17.38
2023-05-02T05:48:00.397Z,17.60
2023-05-02T05:50:31.975Z,17.86
2023-05-02T05:53:03.623Z,17.51
2023-05-02T05:55:37.341Z,17.55
2023-05-02T05:58:12.818Z,17.76
2023-05-02T06:00:47.453Z,17.61
2023-05-02T06:03:19.221Z,17.48
2023-05-02T06:05:50.925Z,17.55
2023-05-02T06:08:22.484Z,17.52
2023-05-02T06:10:54.077Z,17.48
2023-05-02T06:13:26.283Z,17.56
2023-05-02T06:16:02.059Z,17.77
2023-05-02T06:18:33.688Z,17.97
2023-05-02T06:21:06.463Z,17.64
2023-05-02T06:23:38.193Z,17.94
2023-05-02T06:26:10.295Z,18.25
2023-05-02T06:28:42.066Z,18.05
2023-05-02T06:31:13.684Z,17.68
2023-05-02T06:33:45.365Z,18.14
2023-05-02T06:36:16.965Z,18.04
2023-05-02T06:38:48.726Z,18.02
2023-05-02T06:41:20.818Z,18.33
2023-05-02T06:43:52.439Z,18.49
2023-05-02T06:46:24.065Z,17.09
2023-05-02T06:48:55.713Z,17.50
2023-05-02T06:51:27.841Z,17.94
2023-05-02T06:53:59.602Z,17.16
2023-05-02T06:56:31.373Z,18.41
2023-05-02T06:59:02.996Z,18.15
2023-05-02T07:01:34.726Z,16.64
2023-05-02T07:04:06.448Z,15.31
2023-05-02T07:06:41.346Z,15.32
2023-05-02T07:09:12.969Z,16.50
2023-05-02T07:11:44.535Z,17.13
2023-05-02T07:14:16.220Z,17.34
2023-05-02T07:16:50.772Z,17.48
2023-05-02T07:19:22.379Z,17.20
2023-05-02T07:21:54.075Z,16.85
2023-05-02T07:24:28.682Z,18.14
2023-05-02T07:27:00.809Z,17.46
2023-05-02T07:29:32.515Z,16.23
2023-05-02T07:32:04.216Z,17.56
2023-05-02T07:34:35.842Z,17.79
2023-05-02T07:37:07.418Z,18.22
2023-05-02T07:39:41.822Z,18.35
2023-05-02T07:42:13.425Z,18.53
2023-05-02T07:44:45.025Z,18.10
2023-05-02T07:47:16.572Z,17.98
2023-05-02T07:49:52.533Z,18.24
2023-05-02T07:52:24.137Z,18.80
2023-05-02T07:54:56.375Z,18.68
2023-05-02T07:57:27.952Z,18.07
2023-05-02T08:00:00.087Z,17.78
2023-05-02T08:02:32.063Z,17.65
2023-05-02T08:05:04.619Z,18.85
2023-05-02T08:07:37.269Z,19.51
2023-05-02T08:10:10.231Z,19.34
2023-05-02T08:12:42.562Z,19.53
2023-05-02T08:15:14.421Z,18.82
2023-05-02T08:17:46.018Z,19.01
2023-05-02T08:20:17.862Z,18.73
2023-05-02T08:22:50.438Z,18.78
2023-05-02T08:25:22.159Z,18.87
2023-05-02T08:27:53.712Z,19.23
2023-05-02T08:30:25.542Z,19.40
2023-05-02T08:32:57.134Z,19.22
2023-05-02T08:35:31.871Z,19.48
2023-05-02T08:38:03.485Z,19.40
2023-05-02T08:40:41.463Z,18.47
2023-05-02T08:43:16.382Z,19.27
2023-05-02T08:45:53.847Z,19.79
2023-05-02T08:48:26.836Z,20.57
2023-05-02T08:50:59.551Z,19.58
2023-05-02T08:53:34.744Z,19.27
2023-05-02T08:56:08.100Z,20.05
2023-05-02T08:58:41.284Z,19.31
2023-05-02T09:01:19.344Z,20.03
2023-05-02T09:03:52.302Z,20.31
2023-05-02T09:06:24.082Z,21.12
2023-05-02T09:08:59.646Z,21.75
2023-05-02T09:11:31.462Z,21.82
2023-05-02T09:14:16.178Z,21.40
2023-05-02T09:16:47.956Z,21.83
2023-05-02T09:19:26.826Z,20.54
2023-05-02T09:22:01.950Z,20.92
2023-05-02T09:24:33.957Z,21.53
2023-05-02T09:27:06.023Z,21.99
2023-05-02T09:29:39.090Z,19.13
2023-05-02T09:32:20.591Z,19.02
2023-05-02T09:35:06.861Z,20.69
2023-05-02T09:37:38.669Z,18.93
2023-05-02T09:40:11.430Z,21.15
2023-05-02T09:42:43.100Z,20.78
2023-05-02T09:45:32.907Z,19.68
2023-05-02T09:48:04.952Z,19.03
2023-05-02T09:50:38.481Z,21.20
2023-05-02T09:53:11.321Z,21.43
2023-05-02T09:55:42.895Z,22.41
2023-05-02T09:58:32.796Z,21.66
2023-05-02T10:01:08.028Z,20.40
2023-05-02T10:03:42.143Z,19.77
2023-05-02T10:06:15.911Z,19.41
2023-05-02T10:13:22.673Z,21.67
2023-05-02T10:16:03.051Z,22.79
2023-05-02T10:19:10.667Z,22.11
2023-05-02T10:21:43.568Z,22.46
2023-05-02T10:24:16.640Z,21.81
2023-05-02T10:26:48.512Z,22.77
2023-05-02T10:29:21.041Z,23.98
2023-05-02T10:31:53.528Z,24.06
2023-05-02T10:34:26.055Z,23.82
2023-05-02T10:37:01.574Z,22.68
2023-05-02T10:39:33.448Z,20.98
2023-05-02T10:42:09.064Z,21.17
2023-05-02T10:44:41.691Z,18.85
2023-05-02T10:47:21.927Z,16.98
2023-05-02T10:50:01.999Z,19.60
2023-05-02T10:52:38.277Z,22.08
2023-05-02T10:55:25.333Z,23.21
2023-05-02T10:58:08.818Z,23.29
2023-05-02T11:00:40.455Z,23.00
2023-05-02T11:03:12.167Z,20.53
2023-05-02T11:06:07.876Z,23.30
2023-05-02T11:08:41.754Z,19.30
2023-05-02T11:11:42.646Z,24.84
2023-05-02T11:14:34.315Z,23.36
2023-05-02T11:17:08.566Z,26.01
2023-05-02T11:19:46.334Z,26.94
2023-05-02T11:22:18.057Z,27.57
2023-05-02T11:24:51.213Z,26.64
2023-05-02T11:27:38.218Z,26.69
2023-05-02T11:30:10.994Z,26.35
2023-05-02T11:32:45.989Z,22.82
2023-05-02T11:35:23.541Z,21.91
2023-05-02T11:38:00.966Z,23.54
2023-05-02T11:40:32.965Z,23.55
2023-05-02T11:43:16.730Z,22.05
2023-05-02T11:45:48.797Z,19.39
2023-05-02T11:48:23.330Z,19.81
2023-05-02T11:51:05.319Z,18.90
2023-05-02T11:53:41.646Z,18.00
2023-05-02T11:56:13.322Z,18.53
2023-05-02T11:58:46.964Z,18.49
2023-05-02T12:01:18.728Z,18.19
2023-05-02T12:03:52.592Z,19.39
2023-05-02T12:06:24.344Z,18.87
2023-05-02T12:09:11.184Z,19.90
2023-05-02T12:11:43.661Z,20.51
2023-05-02T12:14:15.994Z,22.30
2023-05-02T12:16:47.825Z,21.20
2023-05-02T12:19:19.628Z,21.37
2023-05-02T12:21:51.746Z,22.56
2023-05-02T12:24:25.446Z,22.77
2023-05-02T12:27:17.084Z,22.63
2023-05-02T12:29:49.549Z,21.93
2023-05-02T12:32:30.643Z,21.12
2023-05-02T12:35:03.951Z,18.89
2023-05-02T12:37:35.824Z,17.99
2023-05-02T12:40:17.082Z,20.04
2023-05-02T12:43:04.352Z,20.20
2023-05-02T12:45:36.719Z,20.88
2023-05-02T12:48:26.463Z,21.31
2023-05-02T12:51:00.419Z,21.51
2023-05-02T12:53:43.307Z,21.09
2023-05-02T12:56:15.188Z,21.06
2023-05-02T12:58:48.137Z,20.33
2023-05-02T13:01:19.760Z,21.46
2023-05-02T13:03:51.597Z,23.08
2023-05-02T13:06:23.435Z,24.10
2023-05-02T13:08:55.082Z,22.74
2023-05-02T13:11:26.914Z,25.37
2023-05-02T13:14:00.334Z,23.07
2023-05-02T13:16:33.744Z,26.55
2023-05-02T13:19:05.765Z,23.86
2023-05-02T13:21:37.400Z,25.47
2023-05-02T13:24:08.958Z,24.81
2023-05-02T13:26:44.248Z,26.74
2023-05-02T13:29:18.968Z,25.72
2023-05-02T13:31:50.575Z,24.74
2023-05-02T13:34:22.161Z,22.35
2023-05-02T13:36:53.736Z,23.60
2023-05-02T13:39:25.327Z,26.14
2023-05-02T13:41:56.909Z,27.63
2023-05-02T13:44:28.567Z,28.40
2023-05-02T13:47:00.201Z,28.65
2023-05-02T13:49:31.795Z,23.96
2023-05-02T13:52:04.341Z,24.50
2023-05-02T13:54:36.052Z,26.02
2023-05-02T13:57:07.906Z,22.27
2023-05-02T13:59:39.505Z,26.02
2023-05-02T14:02:11.312Z,26.47
2023-05-02T14:04:43.107Z,26.30
2023-05-02T14:07:15.013Z,26.54
2023-05-02T14:09:48.763Z,25.12
2023-05-02T14:12:20.486Z,26.25
2023-05-02T14:14:52.317Z,26.84
2023-05-02T14:19:58.921Z,24.10
2023-05-02T14:22:31.039Z,23.81
2023-05-02T14:25:02.665Z,24.04
2023-05-02T14:27:34.228Z,25.98
2023-05-02T14:30:07.839Z,23.94
2023-05-02T14:32:39.538Z,24.82
2023-05-02T14:35:11.304Z,23.41
2023-05-02T14:37:45.050Z,24.02
2023-05-02T14:40:17.104Z,23.72
2023-05-02T14:42:48.668Z,23.51
2023-05-02T14:45:20.281Z,23.28
2023-05-02T14:47:52.385Z,21.88
2023-05-02T14:50:24.315Z,20.21
2023-05-02T14:52:56.065Z,19.76
2023-05-02T14:55:27.702Z,19.55
2023-05-02T14:57:59.368Z,19.22
2023-05-02T15:00:30.996Z,18.89
2023-05-02T15:03:04.447Z,18.52
2023-05-02T15:05:37.643Z,17.89
2023-05-02T15:08:09.236Z,16.83
2023-05-02T15:10:40.869Z,16.35
2023-05-02T15:13:12.466Z,16.77
2023-05-02T15:15:47.585Z,17.02
2023-05-02T15:18:19.102Z,17.21
2023-05-02T15:20:50.714Z,16.77
2023-05-02T15:23:22.910Z,15.64
2023-05-02T15:25:54.590Z,15.70
2023-05-02T15:28:26.278Z,16.69
2023-05-02T15:30:57.895Z,17.08
2023-05-02T15:33:29.435Z,17.13
2023-05-02T15:36:04.905Z,16.94
2023-05-02T15:38:39.466Z,16.80
2023-05-02T15:41:11.603Z,16.61
2023-05-02T15:43:43.277Z,16.88
2023-05-02T15:46:14.937Z,16.71
2023-05-02T15:48:46.672Z,16.39
2023-05-02T15:51:21.389Z,16.30
2023-05-02T15:53:53.281Z,16.29
2023-05-02T15:56:24.970Z,16.39
2023-05-02T15:58:56.571Z,16.28
2023-05-02T16:01:28.217Z,16.71
2023-05-02T16:04:03.098Z,17.17
2023-05-02T16:06:34.739Z,18.46
2023-05-02T16:09:10.217Z,18.97
2023-05-02T16:11:42.002Z,17.94
2023-05-02T16:14:13.599Z,17.11
2023-05-02T16:16:45.366Z,17.43
2023-05-02T16:19:19.625Z,17.89
2023-05-02T16:21:52.515Z,17.96
2023-05-02T16:24:27.224Z,18.82
2023-05-02T16:26:58.856Z,18.47
2023-05-02T16:29:30.624Z,18.99
2023-05-02T16:32:02.227Z,18.69
2023-05-02T16:34:33.949Z,18.10
2023-05-02T16:37:08.172Z,17.82
2023-05-02T16:39:40.018Z,17.62
2023-05-02T16:42:12.098Z,17.55
2023-05-02T16:44:43.646Z,17.33
2023-05-02T16:47:15.883Z,17.41
2023-05-02T16:49:52.162Z,19.52
2023-05-02T16:52:25.287Z,19.82
2023-05-02T16:54:56.998Z,20.20
2023-05-02T16:57:29.213Z,20.26
2023-05-02T17:00:01.759Z,20.25
2023-05-02T17:02:33.645Z,20.14
2023-05-02T17:05:06.355Z,20.18
2023-05-02T17:07:37.950Z,19.71
2023-05-02T17:10:10.440Z,19.99
2023-05-02T17:12:42.040Z,20.08
2023-05-02T17:15:16.555Z,20.13
2023-05-02T17:17:48.162Z,20.09
2023-05-02T17:20:20.470Z,19.92
2023-05-02T17:22:52.637Z,19.78
2023-05-02T17:25:24.224Z,19.75
2023-05-02T17:27:55.845Z,19.74
2023-05-02T17:30:27.525Z,19.71
2023-05-02T17:32:59.357Z,19.66
2023-05-02T17:35:31.769Z,19.66
2023-05-02T17:38:03.403Z,19.43
2023-05-02T17:40:36.107Z,19.29
2023-05-02T17:43:09.758Z,19.38
2023-05-02T17:45:41.630Z,19.43
2023-05-02T17:48:13.418Z,19.21
2023-05-02T17:50:45.332Z,18.96
2023-05-02T17:53:17.043Z,18.73
2023-05-02T17:55:48.583Z,19.01
2023-05-02T17:58:20.505Z,19.15
2023-05-02T18:00:52.053Z,18.61
2023-05-02T18:03:29.406Z,17.55
2023-05-02T18:06:01.313Z,17.24
2023-05-02T18:08:36.147Z,17.11
2023-05-02T18:11:16.278Z,16.95
2023-05-02T18:13:49.678Z,15.98
2023-05-02T18:16:21.314Z,15.22
2023-05-02T18:18:53.606Z,14.91
2023-05-02T18:21:28.306Z,14.82
2023-05-02T18:23:59.909Z,13.89
2023-05-02T18:26:31.550Z,14.32
2023-05-02T18:29:03.190Z,14.39
2023-05-02T18:31:36.126Z,15.09
2023-05-02T18:34:09.195Z,15.24
2023-05-02T18:36:45.110Z,15.23
2023-05-02T18:39:16.786Z,15.42
2023-05-02T18:41:48.404Z,15.45
2023-05-02T18:44:19.973Z,15.85
2023-05-02T18:46:51.894Z,15.94
2023-05-02T18:49:29.308Z,15.69
2023-05-02T18:52:00.910Z,15.93
2023-05-02T18:54:33.570Z,16.06
2023-05-02T18:57:05.276Z,16.34
2023-05-02T18:59:36.877Z,16.56
2023-05-02T19:02:08.446Z,16.93
2023-05-02T19:04:39.999Z,16.70
2023-05-02T19:07:11.808Z,16.38
2023-05-02T19:09:43.530Z,16.35
2023-05-02T19:12:15.253Z,15.98
2023-05-02T19:14:47.986Z,15.97
2023-05-02T19:17:19.683Z,16.47
2023-05-02T19:19:51.991Z,16.52
2023-05-02T19:22:23.642Z,16.56
2023-05-02T19:24:55.310Z,16.48
2023-05-02T19:27:27.254Z,16.63
2023-05-02T19:29:58.779Z,16.65
2023-05-02T19:32:30.600Z,16.56
2023-05-02T19:35:04.346Z,16.63
2023-05-02T19:37:36.661Z,16.83
2023-05-02T19:40:09.761Z,16.78
2023-05-02T19:42:43.667Z,16.85
2023-05-02T19:45:17.930Z,16.37
2023-05-02T19:47:49.603Z,16.60
2023-05-02T19:50:21.182Z,16.65
2023-05-02T19:52:52.801Z,16.62
2023-05-02T19:55:24.693Z,16.75
2023-05-02T19:57:56.345Z,16.83
2023-05-02T20:00:27.975Z,16.72
2023-05-02T20:02:59.872Z,16.77
2023-05-02T20:05:31.511Z,16.72
2023-05-02T20:08:03.175Z,16.63
2023-05-02T20:10:36.783Z,16.65
2023-05-02T20:13:08.347Z,16.62
2023-05-02T20:15:40.111Z,16.45
2023-05-02T20:18:11.792Z,16.48
2023-05-02T20:20:43.424Z,16.58
2023-05-02T20:23:15.076Z,16.55
2023-05-02T20:25:46.661Z,16.58
2023-05-02T20:28:18.274Z,16.33
2023-05-02T20:30:50.683Z,16.10
2023-05-02T20:33:27.488Z,16.05
2023-05-02T20:36:05.739Z,15.97
2023-05-02T20:39:45.679Z,16.05
2023-05-02T20:42:23.350Z,15.82
2023-05-02T20:44:58.458Z,15.74
2023-05-02T20:47:30.551Z,15.89
2023-05-02T20:50:02.653Z,15.55
2023-05-02T20:52:35.681Z,15.85
2023-05-02T20:55:08.091Z,15.95
2023-05-02T20:57:40.009Z,16.06
2023-05-02T21:00:13.728Z,15.86
2023-05-02T21:02:45.482Z,15.91
2023-05-02T21:05:17.086Z,15.58
2023-05-02T21:07:48.671Z,15.41
2023-05-02T21:10:20.254Z,15.38
2023-05-02T21:12:51.930Z,15.15
2023-05-02T21:15:23.498Z,15.35
2023-05-02T21:18:02.536Z,15.96
2023-05-02T21:20:34.687Z,15.89
2023-05-02T21:23:06.464Z,16.19
2023-05-02T21:25:40.947Z,16.00
2023-05-02T21:28:12.704Z,15.85
2023-05-02T21:30:44.334Z,15.65
2023-05-02T21:33:17.678Z,15.93
2023-05-02T21:35:57.634Z,16.01
2023-05-02T21:38:29.266Z,16.14
2023-05-02T21:41:05.280Z,15.86
2023-05-02T21:43:40.536Z,15.88
2023-05-02T21:46:14.936Z,15.50
2023-05-02T21:48:46.562Z,15.19
2023-05-02T21:51:18.154Z,15.42
2023-05-02T21:53:49.897Z,15.45
2023-05-02T21:56:21.495Z,15.39
2023-05-02T21:58:53.157Z,15.32
2023-05-02T22:01:24.922Z,15.17
2023-05-02T22:03:58.081Z,15.07
2023-05-02T22:06:29.780Z,15.15
2023-05-02T22:09:01.534Z,15.20
2023-05-02T22:11:35.823Z,15.23
2023-05-02T22:14:07.589Z,15.15
2023-05-02T22:16:40.163Z,15.24
2023-05-02T22:19:11.993Z,15.24
2023-05-02T22:21:43.960Z,15.20
2023-05-02T22:24:16.678Z,15.14
2023-05-02T22:26:50.558Z,15.16
2023-05-02T22:29:22.775Z,15.16
2023-05-02T22:31:54.448Z,14.97
2023-05-02T22:34:26.116Z,14.67
2023-05-02T22:36:57.665Z,14.68
2023-05-02T22:39:29.261Z,14.30
2023-05-02T22:42:01.647Z,14.18
2023-05-02T22:44:37.950Z,14.04
2023-05-02T22:47:15.490Z,14.12
2023-05-02T22:49:47.413Z,14.14
2023-05-02T22:52:22.524Z,14.04
2023-05-02T22:54:54.313Z,13.96
2023-05-02T22:57:25.847Z,14.06
2023-05-02T22:59:57.424Z,13.83
2023-05-02T23:02:29.168Z,13.71
2023-05-02T23:05:01.633Z,13.60
2023-05-02T23:07:33.395Z,13.33
2023-05-02T23:10:06.395Z,13.70
2023-05-02T23:12:38.469Z,13.90
2023-05-02T23:15:10.695Z,13.94
2023-05-02T23:17:42.370Z,14.04
2023-05-02T23:20:14.066Z,14.02
2023-05-02T23:22:46.357Z,13.96
2023-05-02T23:25:19.109Z,13.79
2023-05-02T23:27:50.856Z,13.81
2023-05-02T23:30:22.737Z,13.86
2023-05-02T23:32:54.466Z,13.96
2023-05-02T23:35:26.302Z,14.03
2023-05-02T23:38:00.796Z,13.86
2023-05-02T23:40:32.818Z,13.97
2023-05-02T23:43:07.518Z,14.06
2023-05-02T23:45:39.374Z,14.10
2023-05-02T23:48:10.956Z,14.07
2023-05-02T23:50:42.813Z,14.10
2023-05-02T23:53:14.382Z,14.01
2023-05-02T23:55:46.131Z,14.05
2023-05-02T23:58:17.681Z,14.14
